Time;durP1;ratioP1;P1;durP2;ratioP2;P2;SDS_P1;SDS_P2;PMS_P1;PMS_P2;Temp;Humidity;BMP_temperature;BMP_pressure;BME280_temperature;BME280_humidity;BME280_pressure;Samples;Min_cycle;Max_cycle;Signal;HPM_P1;HPM_P2
2022/04/04 00:00:26;;;;;;;3.42;3.22;;;-1.10;99.90;;;;;;494749;240;27575;-72
2022/04/04 00:02:27;;;;;;;3.30;3.10;;;-1.10;99.90;;;;;;494728;240;27583;-72
2022/04/04 00:04:28;;;;;;;3.42;3.10;;;-1.10;99.90;;;;;;494736;240;28019;-72
2022/04/04 00:06:31;;;;;;;3.87;3.35;;;-1.10;99.90;;;;;;494753;240;27961;-71
2022/04/04 00:08:33;;;;;;;3.15;2.95;;;-1.10;99.90;;;;;;494652;240;29076;-73
2022/04/04 00:10:32;;;;;;;3.03;2.83;;;-1.20;99.90;;;;;;494614;240;27520;-72
2022/04/04 00:12:33;;;;;;;3.20;2.90;;;-1.20;99.90;;;;;;494738;240;27594;-72
2022/04/04 00:14:34;;;;;;;3.85;3.55;;;-1.20;99.90;;;;;;494734;240;27460;-72
2022/04/04 00:16:36;;;;;;;3.65;3.22;;;-1.20;99.90;;;;;;494752;240;27528;-72
2022/04/04 00:18:37;;;;;;;3.33;3.12;;;-1.30;99.90;;;;;;494783;240;27586;-74
2022/04/04 00:20:39;;;;;;;4.60;4.20;;;-1.30;99.90;;;;;;494769;240;27553;-72
2022/04/04 00:22:39;;;;;;;3.80;3.50;;;-1.40;99.90;;;;;;494725;240;27586;-73
2022/04/04 00:24:41;;;;;;;3.60;3.30;;;-1.40;99.90;;;;;;494778;240;27897;-72
2022/04/04 00:26:42;;;;;;;3.92;3.62;;;-1.40;99.90;;;;;;494798;240;27968;-72
2022/04/04 00:28:43;;;;;;;4.10;3.80;;;-1.40;99.90;;;;;;494787;240;29085;-72
2022/04/04 00:30:45;;;;;;;4.10;3.72;;;-1.30;99.90;;;;;;494795;240;27462;-72
2022/04/04 00:32:46;;;;;;;3.20;3.00;;;-1.30;99.90;;;;;;494766;240;27588;-72
2022/04/04 00:34:47;;;;;;;4.03;3.72;;;-1.30;99.90;;;;;;494753;240;27465;-72
2022/04/04 00:36:48;;;;;;;3.47;3.17;;;-1.30;99.90;;;;;;494796;240;27554;-72
2022/04/04 00:38:49;;;;;;;3.97;3.60;;;-1.40;99.90;;;;;;494784;240;27513;-72
2022/04/04 00:40:51;;;;;;;3.42;3.22;;;-1.30;99.90;;;;;;494819;240;27470;-72
2022/04/04 00:42:52;;;;;;;3.60;3.40;;;-1.30;99.90;;;;;;494810;240;27509;-72
2022/04/04 00:44:53;;;;;;;4.37;3.47;;;-1.40;99.90;;;;;;494817;240;28876;-72
2022/04/04 00:46:54;;;;;;;5.78;3.83;;;-1.40;99.90;;;;;;494807;240;27917;-72
2022/04/04 00:48:56;;;;;;;4.85;4.40;;;-1.40;99.90;;;;;;494762;240;29118;-72
2022/04/04 00:50:57;;;;;;;4.90;4.40;;;-1.40;99.90;;;;;;494777;240;27465;-72
2022/04/04 00:52:58;;;;;;;4.90;4.45;;;-1.50;99.90;;;;;;494768;240;27509;-72
2022/04/04 00:54:59;;;;;;;4.85;4.35;;;-1.50;99.90;;;;;;494746;240;27578;-72
2022/04/04 00:57:01;;;;;;;5.78;4.47;;;-1.50;99.90;;;;;;494785;240;27494;-72
2022/04/04 00:59:02;;;;;;;6.80;5.35;;;-1.50;99.90;;;;;;494768;240;27522;-72
2022/04/04 01:01:03;;;;;;;5.70;5.20;;;-1.50;99.90;;;;;;494766;240;27477;-72
2022/04/04 01:03:04;;;;;;;5.28;4.75;;;-1.50;99.90;;;;;;494762;240;27625;-72
2022/04/04 01:05:06;;;;;;;4.70;4.28;;;-1.40;99.90;;;;;;494776;240;28737;-72
2022/04/04 01:07:07;;;;;;;4.57;4.18;;;-1.50;99.90;;;;;;494775;240;27902;-71
2022/04/04 01:09:09;;;;;;;5.40;4.55;;;-1.40;99.90;;;;;;494779;240;28058;-72
2022/04/04 01:11:10;;;;;;;4.18;3.87;;;-1.40;99.90;;;;;;494731;240;27548;-72
2022/04/04 01:13:11;;;;;;;4.15;3.85;;;-1.40;99.90;;;;;;494792;240;27498;-72
2022/04/04 01:15:12;;;;;;;4.80;4.40;;;-1.40;99.90;;;;;;494705;240;27555;-71
2022/04/04 01:17:13;;;;;;;4.47;4.07;;;-1.40;99.90;;;;;;494784;240;27564;-72
2022/04/04 01:19:15;;;;;;;4.72;4.32;;;-1.40;99.90;;;;;;494774;240;27512;-73
2022/04/04 01:21:16;;;;;;;4.72;4.40;;;-1.40;99.90;;;;;;494740;240;27556;-71
2022/04/04 01:23:17;;;;;;;4.22;3.90;;;-1.40;99.90;;;;;;494757;240;27527;-72
2022/04/04 01:25:18;;;;;;;5.32;4.55;;;-1.40;99.90;;;;;;494745;240;28195;-73
2022/04/04 01:27:20;;;;;;;4.85;4.45;;;-1.40;99.90;;;;;;494781;240;28018;-72
2022/04/04 01:29:21;;;;;;;3.85;3.42;;;-1.40;99.90;;;;;;494787;240;27996;-72
2022/04/04 01:31:22;;;;;;;4.87;4.07;;;-1.40;99.90;;;;;;494745;240;27504;-72
2022/04/04 01:33:23;;;;;;;4.93;4.50;;;-1.40;99.90;;;;;;494746;240;27588;-73
2022/04/04 01:35:25;;;;;;;4.05;3.75;;;-1.40;99.90;;;;;;494728;240;27611;-73
2022/04/04 01:37:26;;;;;;;4.60;4.20;;;-1.50;99.90;;;;;;494778;240;27474;-72
2022/04/04 01:39:27;;;;;;;5.60;4.30;;;-1.50;99.90;;;;;;494780;240;27514;-73
2022/04/04 01:41:28;;;;;;;4.10;3.75;;;-1.50;99.90;;;;;;494749;240;27541;-71
2022/04/04 01:43:30;;;;;;;5.30;4.45;;;-1.50;99.90;;;;;;494706;240;27585;-72
2022/04/04 01:47:51;;;;;;;5.18;4.25;;;-1.60;99.90;;;;;;494701;240;27458;-72
2022/04/04 01:49:52;;;;;;;4.55;4.20;;;-1.60;99.90;;;;;;494680;240;27517;-72
2022/04/04 01:51:53;;;;;;;4.03;3.72;;;-1.50;99.90;;;;;;494774;240;28136;-72
2022/04/04 01:53:54;;;;;;;4.40;4.00;;;-1.60;99.90;;;;;;494760;240;29001;-72
2022/04/04 01:55:55;;;;;;;4.87;4.37;;;-1.60;99.90;;;;;;494753;240;27510;-72
2022/04/04 01:57:57;;;;;;;4.50;4.10;;;-1.60;99.90;;;;;;494753;240;27473;-72
2022/04/04 01:59:58;;;;;;;3.92;3.62;;;-1.60;99.90;;;;;;494744;240;27489;-72
2022/04/04 02:01:59;;;;;;;3.85;3.55;;;-1.60;99.90;;;;;;494750;240;27577;-74
2022/04/04 02:04:01;;;;;;;3.97;3.67;;;-1.60;99.90;;;;;;494768;240;27616;-72
2022/04/04 02:06:02;;;;;;;3.30;3.08;;;-1.60;99.90;;;;;;494774;240;27531;-72
2022/04/04 02:08:03;;;;;;;4.62;4.22;;;-1.60;99.90;;;;;;494755;240;27347;-71
2022/04/04 02:10:04;;;;;;;4.22;3.83;;;-1.60;99.90;;;;;;494808;240;27496;-72
2022/04/04 02:12:06;;;;;;;5.15;4.65;;;-1.60;99.90;;;;;;494813;240;28075;-74
2022/04/04 02:14:07;;;;;;;5.25;4.75;;;-1.60;99.90;;;;;;494796;240;29020;-71
2022/04/04 02:16:08;;;;;;;4.90;4.00;;;-1.70;99.90;;;;;;494795;240;27500;-73
2022/04/04 02:18:09;;;;;;;6.10;4.80;;;-1.70;99.90;;;;;;494794;240;27585;-72
2022/04/04 02:20:11;;;;;;;4.70;4.30;;;-1.70;99.90;;;;;;494792;240;27563;-72
2022/04/04 02:22:12;;;;;;;5.12;4.40;;;-1.60;99.90;;;;;;494808;240;27532;-74
2022/04/04 02:24:13;;;;;;;4.57;4.00;;;-1.70;99.90;;;;;;494796;240;27551;-72
2022/04/04 02:26:14;;;;;;;4.50;4.10;;;-1.70;99.90;;;;;;494805;240;27512;-72
2022/04/04 02:28:16;;;;;;;4.65;4.20;;;-1.60;99.90;;;;;;494773;240;27447;-72
2022/04/04 02:30:17;;;;;;;4.50;4.10;;;-1.70;99.90;;;;;;494771;240;27498;-72
2022/04/04 02:32:19;;;;;;;5.40;4.32;;;-1.70;99.90;;;;;;494793;240;27985;-74
2022/04/04 02:34:19;;;;;;;4.72;4.18;;;-1.70;99.90;;;;;;494728;240;28083;-72
2022/04/04 02:36:21;;;;;;;4.95;4.45;;;-1.70;99.90;;;;;;494771;240;27612;-71
2022/04/04 02:38:22;;;;;;;4.53;4.12;;;-1.60;99.90;;;;;;494771;240;27286;-72
2022/04/04 02:40:23;;;;;;;5.00;4.50;;;-1.60;99.90;;;;;;494746;240;27383;-72
2022/04/04 02:42:24;;;;;;;4.50;4.10;;;-1.60;99.90;;;;;;494771;240;27444;-74
2022/04/04 02:44:27;;;;;;;4.30;4.00;;;-1.70;99.90;;;;;;494744;240;27372;-72
2022/04/04 02:46:27;;;;;;;4.50;4.10;;;-1.70;99.90;;;;;;494679;240;27611;-73
2022/04/04 02:48:28;;;;;;;3.97;3.37;;;-1.70;99.90;;;;;;494723;240;27464;-72
2022/04/04 02:50:29;;;;;;;4.55;3.92;;;-1.70;99.90;;;;;;494746;240;27958;-72
2022/04/04 02:52:31;;;;;;;3.80;3.50;;;-1.70;99.90;;;;;;494793;240;28083;-73
2022/04/04 02:54:32;;;;;;;4.30;3.90;;;-1.70;99.90;;;;;;494729;236;28073;-72
2022/04/04 02:56:33;;;;;;;4.05;3.75;;;-1.70;99.90;;;;;;494753;240;27596;-72
2022/04/04 02:58:34;;;;;;;4.22;3.92;;;-1.80;99.90;;;;;;494756;240;27549;-72
2022/04/04 03:00:36;;;;;;;3.83;3.55;;;-1.80;99.90;;;;;;494766;240;27478;-72
2022/04/04 03:02:37;;;;;;;4.05;3.70;;;-1.80;99.90;;;;;;494767;240;27390;-73
2022/04/04 03:04:40;;;;;;;3.83;3.50;;;-1.70;99.90;;;;;;494742;240;27466;-72
2022/04/04 03:06:39;;;;;;;4.05;3.75;;;-1.70;99.90;;;;;;494656;240;27389;-72
2022/04/04 03:08:41;;;;;;;4.30;3.90;;;-1.70;99.90;;;;;;494761;240;27462;-72
2022/04/04 03:10:42;;;;;;;3.62;3.33;;;-1.70;99.90;;;;;;494750;240;28067;-71
2022/04/04 03:12:43;;;;;;;4.18;3.85;;;-1.70;99.90;;;;;;494772;240;28000;-72
2022/04/04 03:14:45;;;;;;;4.00;3.65;;;-1.70;99.90;;;;;;494726;240;27988;-71
2022/04/04 03:16:46;;;;;;;4.20;3.80;;;-1.80;99.90;;;;;;494738;240;27490;-72
2022/04/04 03:18:47;;;;;;;3.78;3.50;;;-1.80;99.90;;;;;;494742;240;27493;-72
2022/04/04 03:20:48;;;;;;;3.92;3.62;;;-1.70;99.90;;;;;;494561;240;27454;-72
2022/04/04 03:22:49;;;;;;;3.95;3.65;;;-1.80;99.90;;;;;;494767;240;27520;-74
2022/04/04 03:24:51;;;;;;;4.20;3.80;;;-1.70;99.90;;;;;;494729;236;27345;-72
2022/04/04 03:26:52;;;;;;;4.62;4.22;;;-1.70;99.90;;;;;;494739;240;27602;-72
2022/04/04 03:28:53;;;;;;;4.47;4.10;;;-1.70;99.90;;;;;;494765;240;27540;-73
2022/04/04 03:30:54;;;;;;;5.62;4.40;;;-1.80;99.90;;;;;;494757;240;27933;-72
2022/04/04 03:32:57;;;;;;;4.40;4.10;;;-1.80;99.90;;;;;;494748;240;28064;-72
2022/04/04 03:34:57;;;;;;;4.35;3.95;;;-1.80;99.90;;;;;;494695;240;29017;-72
2022/04/04 03:36:58;;;;;;;4.50;4.10;;;-1.80;99.90;;;;;;494734;240;27506;-72
2022/04/04 03:38:59;;;;;;;4.37;3.97;;;-1.80;99.90;;;;;;494786;240;27596;-74
2022/04/04 03:41:01;;;;;;;4.10;3.70;;;-1.80;99.90;;;;;;494743;240;27568;-72
2022/04/04 03:43:02;;;;;;;5.25;4.75;;;-1.80;99.90;;;;;;494707;240;27541;-72
2022/04/04 03:45:04;;;;;;;4.10;3.80;;;-1.70;99.90;;;;;;494727;240;27506;-72
2022/04/04 03:47:06;;;;;;;4.75;4.18;;;-1.80;99.90;;;;;;494663;240;27515;-72
2022/04/04 03:49:06;;;;;;;4.30;3.85;;;-1.80;99.90;;;;;;494646;240;28118;-74
2022/04/04 03:51:09;;;;;;;4.28;3.92;;;-1.80;99.90;;;;;;494759;240;29046;-72
2022/04/04 03:53:08;;;;;;;5.03;4.07;;;-1.80;99.90;;;;;;494638;240;27966;-73
2022/04/04 03:55:09;;;;;;;4.62;4.22;;;-1.80;99.90;;;;;;494785;240;27452;-72
2022/04/04 03:57:11;;;;;;;4.12;3.83;;;-1.80;99.90;;;;;;494797;240;27501;-72
2022/04/04 03:59:12;;;;;;;4.60;4.30;;;-1.80;99.90;;;;;;494826;240;27510;-73
2022/04/04 04:01:13;;;;;;;3.72;3.53;;;-1.80;99.90;;;;;;494812;240;27354;-72
2022/04/04 04:03:14;;;;;;;5.28;4.87;;;-1.80;99.90;;;;;;494810;240;27505;-73
2022/04/04 04:05:16;;;;;;;5.18;4.68;;;-1.80;99.90;;;;;;494838;240;27548;-72
2022/04/04 04:07:21;;;;;;;5.47;4.97;;;-1.80;99.90;;;;;;494812;240;27597;-72
2022/04/04 04:09:18;;;;;;;5.50;5.00;;;-1.80;99.90;;;;;;494515;240;27996;-72
2022/04/04 04:11:20;;;;;;;5.57;4.97;;;-1.80;99.90;;;;;;494777;240;29033;-72
2022/04/04 04:13:21;;;;;;;5.75;5.00;;;-1.80;99.90;;;;;;494772;240;27584;-72
2022/04/04 04:15:23;;;;;;;4.37;4.03;;;-1.80;99.90;;;;;;494757;240;27513;-72
2022/04/04 04:17:24;;;;;;;5.85;5.22;;;-1.80;99.90;;;;;;494755;240;27477;-71
2022/04/04 04:21:44;;;;;;;4.97;4.53;;;-1.70;99.90;;;;;;494765;240;27381;-72
2022/04/04 04:23:45;;;;;;;5.62;5.12;;;-1.70;99.90;;;;;;494753;240;27533;-72
2022/04/04 04:25:46;;;;;;;4.20;3.90;;;-1.70;99.90;;;;;;494782;240;27605;-73
2022/04/04 04:27:48;;;;;;;4.45;4.05;;;-1.70;99.90;;;;;;494800;240;27581;-72
2022/04/04 04:29:49;;;;;;;5.22;4.72;;;-1.70;99.90;;;;;;494774;240;27976;-73
2022/04/04 04:31:51;;;;;;;4.90;4.45;;;-1.70;99.90;;;;;;494769;240;27906;-72
2022/04/04 04:33:51;;;;;;;4.90;4.40;;;-1.60;99.90;;;;;;494756;240;29076;-72
2022/04/04 04:35:53;;;;;;;5.20;4.70;;;-1.60;99.90;;;;;;494776;240;27629;-72
2022/04/04 04:37:54;;;;;;;5.25;4.75;;;-1.50;99.90;;;;;;494701;240;27453;-72
2022/04/04 04:39:55;;;;;;;3.97;3.67;;;-1.50;99.90;;;;;;494771;240;27574;-72
2022/04/04 04:41:56;;;;;;;5.35;4.28;;;-1.50;99.90;;;;;;494748;240;27353;-72
2022/04/04 04:43:58;;;;;;;4.53;4.12;;;-1.50;99.90;;;;;;494755;240;27281;-72
2022/04/04 04:45:59;;;;;;;6.65;5.55;;;-1.50;99.90;;;;;;494760;240;27529;-72
2022/04/04 04:48:00;;;;;;;5.00;4.57;;;-1.40;99.90;;;;;;494741;240;27610;-72
2022/04/04 04:50:01;;;;;;;6.00;5.43;;;-1.40;99.90;;;;;;494795;240;28077;-74
2022/04/04 04:52:03;;;;;;;5.82;5.12;;;-1.40;99.90;;;;;;494772;240;28072;-73
2022/04/04 04:54:04;;;;;;;6.43;5.37;;;-1.40;99.90;;;;;;494726;240;27988;-72
2022/04/04 04:56:05;;;;;;;7.12;6.40;;;-1.40;99.90;;;;;;494741;240;27471;-71
2022/04/04 04:58:06;;;;;;;6.05;5.45;;;-1.40;99.90;;;;;;494780;236;27482;-72
2022/04/04 05:00:08;;;;;;;6.97;6.00;;;-1.40;99.90;;;;;;494773;240;27496;-73
2022/04/04 05:02:09;;;;;;;6.40;5.60;;;-1.40;99.90;;;;;;494781;240;27462;-71
2022/04/04 05:04:10;;;;;;;5.45;4.87;;;-1.40;99.90;;;;;;494789;240;27654;-74
2022/04/04 05:06:11;;;;;;;7.62;5.90;;;-1.40;99.90;;;;;;494768;240;27576;-72
2022/04/04 05:08:13;;;;;;;8.25;6.80;;;-1.40;99.90;;;;;;494761;240;27510;-72
2022/04/04 05:10:14;;;;;;;6.53;5.78;;;-1.40;99.90;;;;;;494767;240;27997;-73
2022/04/04 05:12:15;;;;;;;6.50;5.90;;;-1.40;99.90;;;;;;494786;240;27946;-72
2022/04/04 05:14:16;;;;;;;7.18;6.32;;;-1.40;99.90;;;;;;494763;240;27994;-72
2022/04/04 05:16:18;;;;;;;6.90;6.12;;;-1.40;99.90;;;;;;494769;240;27505;-72
2022/04/04 05:18:19;;;;;;;7.03;6.32;;;-1.40;99.90;;;;;;494798;240;27512;-72
2022/04/04 05:20:21;;;;;;;5.57;5.00;;;-1.30;99.90;;;;;;494814;240;27600;-73
2022/04/04 05:22:22;;;;;;;5.45;4.95;;;-1.30;99.90;;;;;;494800;240;27449;-72
2022/04/04 05:24:23;;;;;;;7.00;5.25;;;-1.30;99.90;;;;;;494794;240;27522;-72
2022/04/04 05:26:24;;;;;;;5.53;5.03;;;-1.30;99.90;;;;;;494796;240;27490;-72
2022/04/04 05:28:25;;;;;;;6.90;6.20;;;-1.30;99.90;;;;;;494820;240;27549;-72
2022/04/04 05:30:27;;;;;;;7.55;6.62;;;-1.40;99.90;;;;;;494783;240;28067;-73
2022/04/04 05:32:29;;;;;;;5.97;5.37;;;-1.40;99.90;;;;;;494785;240;27914;-72
2022/04/04 05:34:30;;;;;;;6.45;5.75;;;-1.40;99.90;;;;;;494711;240;29168;-72
2022/04/04 05:36:30;;;;;;;8.88;6.93;;;-1.40;99.90;;;;;;494714;240;27576;-72
2022/04/04 05:38:32;;;;;;;7.87;7.07;;;-1.40;99.90;;;;;;494787;240;27462;-72
2022/04/04 05:40:34;;;;;;;9.63;6.57;;;-1.40;99.90;;;;;;494778;240;27513;-73
2022/04/04 05:42:34;;;;;;;7.55;6.45;;;-1.30;99.90;;;;;;494714;240;27463;-72
2022/04/04 05:44:35;;;;;;;7.97;6.43;;;-1.20;99.90;;;;;;494758;240;27512;-73
2022/04/04 05:46:37;;;;;;;9.95;6.70;;;-1.10;99.90;;;;;;494744;240;27525;-72
2022/04/04 05:48:38;;;;;;;8.48;6.90;;;-1.00;99.90;;;;;;494719;240;27541;-72
2022/04/04 05:50:39;;;;;;;7.35;6.53;;;-0.90;99.90;;;;;;494756;240;27949;-72
2022/04/04 05:52:42;;;;;;;9.35;7.05;;;-0.90;99.90;;;;;;494769;240;27902;-72
2022/04/04 05:55:03;;;;;;;7.65;6.78;;;-1.00;99.90;;;;;;494646;240;29146;-71
2022/04/04 05:56:47;;;;;;;9.20;7.47;;;-1.00;99.90;;;;;;493165;240;27552;-72
2022/04/04 05:58:44;;;;;;;10.60;6.80;;;-0.90;99.90;;;;;;494516;240;27557;-71
2022/04/04 06:00:46;;;;;;;8.73;7.25;;;-0.90;99.90;;;;;;494742;240;27570;-73
2022/04/04 06:02:47;;;;;;;7.43;6.62;;;-0.80;99.90;;;;;;494719;240;27556;-72
2022/04/04 06:04:48;;;;;;;7.85;6.35;;;-0.80;99.90;;;;;;494758;240;27599;-72
2022/04/04 06:06:49;;;;;;;8.50;6.80;;;-0.80;99.90;;;;;;494753;240;27532;-72
2022/04/04 06:08:50;;;;;;;9.85;6.90;;;-0.70;99.90;;;;;;494776;240;27496;-72
2022/04/04 06:10:52;;;;;;;7.35;5.85;;;-0.60;99.90;;;;;;494782;240;28098;-73
2022/04/04 06:12:53;;;;;;;7.03;6.32;;;-0.60;99.90;;;;;;494710;240;27995;-72
2022/04/04 06:14:54;;;;;;;6.60;6.00;;;-0.60;99.90;;;;;;494748;240;27577;-72
2022/04/04 06:16:55;;;;;;;7.03;6.32;;;-0.60;99.90;;;;;;494754;240;27465;-72
2022/04/04 06:18:57;;;;;;;7.00;6.15;;;-0.60;99.90;;;;;;494761;240;27478;-73
2022/04/04 06:20:58;;;;;;;7.20;6.50;;;-0.60;99.90;;;;;;494768;240;27521;-73
2022/04/04 06:22:59;;;;;;;7.07;6.35;;;-0.50;99.90;;;;;;494751;240;27590;-72
2022/04/04 06:25:00;;;;;;;6.60;5.95;;;-0.50;99.90;;;;;;494773;240;27540;-72
2022/04/04 06:27:02;;;;;;;8.85;6.93;;;-0.40;99.90;;;;;;494754;240;27578;-72
2022/04/04 06:29:03;;;;;;;8.00;6.35;;;-0.40;99.90;;;;;;494744;240;27970;-72
2022/04/04 06:31:04;;;;;;;7.50;6.65;;;-0.30;99.90;;;;;;494772;240;27979;-73
2022/04/04 06:33:05;;;;;;;7.95;6.65;;;-0.30;99.90;;;;;;494769;240;29046;-71
2022/04/04 06:35:07;;;;;;;7.70;6.82;;;-0.30;99.90;;;;;;494783;240;27575;-72
2022/04/04 06:37:10;;;;;;;10.18;6.97;;;-0.30;99.90;;;;;;494787;240;27471;-73
2022/04/04 06:39:09;;;;;;;8.45;6.95;;;-0.30;99.90;;;;;;494706;240;27480;-73
2022/04/04 06:41:11;;;;;;;7.78;6.60;;;-0.20;99.90;;;;;;494831;240;27493;-74
2022/04/04 06:43:12;;;;;;;9.32;6.90;;;-0.20;99.90;;;;;;494776;240;27469;-72
2022/04/04 06:45:13;;;;;;;9.10;6.43;;;-0.20;99.90;;;;;;494808;240;27510;-72
2022/04/04 06:47:14;;;;;;;7.37;6.32;;;-0.20;99.90;;;;;;494772;240;27551;-72
2022/04/04 06:49:15;;;;;;;8.88;6.80;;;-0.20;99.90;;;;;;494742;240;27968;-72
2022/04/04 06:51:17;;;;;;;10.77;7.60;;;-0.10;99.90;;;;;;494790;240;28058;-74
2022/04/04 06:53:21;;;;;;;8.32;7.05;;;-0.10;99.90;;;;;;494784;240;27469;-72
2022/04/04 06:55:19;;;;;;;10.35;7.18;;;0.00;99.90;;;;;;494503;240;27501;-72
2022/04/04 06:57:20;;;;;;;10.45;8.13;;;0.00;99.90;;;;;;494735;240;27540;-72
2022/04/04 06:59:22;;;;;;;9.25;7.55;;;0.10;99.90;;;;;;494747;240;27560;-72
2022/04/04 07:01:23;;;;;;;9.43;8.25;;;0.10;99.90;;;;;;494775;240;27609;-73
2022/04/04 07:03:24;;;;;;;9.98;7.28;;;0.20;99.90;;;;;;494738;240;27476;-73
2022/04/04 07:05:25;;;;;;;10.18;8.88;;;0.20;99.90;;;;;;494752;240;27505;-72
2022/04/04 07:07:27;;;;;;;9.63;8.32;;;0.30;99.90;;;;;;494744;240;27926;-72
2022/04/04 07:09:29;;;;;;;11.25;8.25;;;0.30;99.90;;;;;;494749;240;28082;-72
2022/04/04 07:11:29;;;;;;;9.85;8.25;;;0.30;99.90;;;;;;494769;240;27993;-75
2022/04/04 07:13:34;;;;;;;9.68;8.00;;;0.40;99.90;;;;;;494749;240;27939;-72
2022/04/04 07:15:35;;;;;;;10.20;8.40;;;0.40;99.90;;;;;;494762;240;27546;-71
2022/04/04 07:17:36;;;;;;;9.05;7.68;;;0.50;99.90;;;;;;494763;240;27586;-73
2022/04/04 07:19:37;;;;;;;9.23;8.00;;;0.50;99.90;;;;;;494757;240;27567;-72
2022/04/04 07:21:38;;;;;;;9.93;8.43;;;0.50;99.90;;;;;;494746;240;27514;-73
2022/04/04 07:23:39;;;;;;;10.25;8.50;;;0.50;99.90;;;;;;494760;236;27565;-75
2022/04/04 07:25:41;;;;;;;10.80;8.10;;;0.60;99.90;;;;;;494773;240;27564;-72
2022/04/04 07:27:43;;;;;;;9.25;6.82;;;0.60;99.90;;;;;;494726;240;28068;-73
2022/04/04 07:29:43;;;;;;;8.85;7.35;;;0.60;99.90;;;;;;494722;240;27957;-72
2022/04/04 07:31:44;;;;;;;10.57;8.70;;;0.70;99.90;;;;;;494719;240;29149;-72
2022/04/04 07:33:46;;;;;;;8.68;7.55;;;0.70;99.90;;;;;;494753;240;27600;-75
2022/04/04 07:35:47;;;;;;;8.45;7.50;;;0.80;99.90;;;;;;494772;240;27607;-72
2022/04/04 07:37:48;;;;;;;10.80;8.50;;;0.80;99.90;;;;;;494737;240;27519;-73
2022/04/04 07:39:50;;;;;;;11.95;8.82;;;0.90;99.90;;;;;;494756;240;27453;-72
2022/04/04 07:41:51;;;;;;;9.85;7.75;;;0.80;99.90;;;;;;494734;240;27560;-72
2022/04/04 07:43:53;;;;;;;9.40;7.85;;;0.90;99.90;;;;;;494751;240;27809;-74
2022/04/04 07:45:53;;;;;;;10.07;8.25;;;0.90;99.90;;;;;;494741;240;27533;-71
2022/04/04 07:47:55;;;;;;;11.23;7.60;;;1.10;99.90;;;;;;494743;240;27524;-72
2022/04/04 07:49:56;;;;;;;11.35;8.25;;;1.10;99.90;;;;;;494755;240;27542;-71
2022/04/04 07:51:57;;;;;;;8.32;7.37;;;1.10;99.90;;;;;;494783;236;27955;-72
2022/04/04 07:53:58;;;;;;;9.02;8.13;;;1.20;99.90;;;;;;494756;240;28136;-74
2022/04/04 07:55:59;;;;;;;9.23;7.95;;;1.20;99.90;;;;;;494621;240;27987;-72
2022/04/04 07:58:01;;;;;;;9.00;7.30;;;1.20;99.90;;;;;;494738;240;27519;-73
2022/04/04 08:00:02;;;;;;;8.45;7.45;;;1.30;99.90;;;;;;494760;240;27463;-72
2022/04/04 08:02:03;;;;;;;10.13;8.30;;;1.30;99.90;;;;;;494731;240;27584;-72
2022/04/04 08:04:05;;;;;;;8.38;7.57;;;1.40;99.90;;;;;;494746;240;27509;-75
2022/04/04 08:06:06;;;;;;;9.60;7.68;;;1.40;99.90;;;;;;494764;240;27573;-72
2022/04/04 08:08:07;;;;;;;8.98;7.15;;;1.50;99.90;;;;;;494789;240;27520;-73
2022/04/04 08:10:08;;;;;;;9.10;7.60;;;1.60;99.90;;;;;;494780;240;27477;-72
2022/04/04 08:12:09;;;;;;;10.38;7.70;;;1.60;99.90;;;;;;494758;240;27509;-72
2022/04/04 08:14:11;;;;;;;9.38;7.80;;;1.70;99.90;;;;;;494787;240;27527;-73
2022/04/04 08:16:12;;;;;;;8.93;7.57;;;1.70;99.90;;;;;;494789;240;27922;-71
2022/04/04 08:18:13;;;;;;;8.77;7.87;;;1.70;99.90;;;;;;494780;240;27983;-72
2022/04/04 08:20:16;;;;;;;9.48;7.53;;;1.80;99.90;;;;;;494765;240;28641;-71
2022/04/04 08:22:16;;;;;;;12.30;8.90;;;1.90;99.90;;;;;;494670;240;27936;-71
2022/04/04 08:24:17;;;;;;;9.73;8.10;;;1.90;99.90;;;;;;494758;240;27501;-73
2022/04/04 08:26:18;;;;;;;10.30;8.27;;;1.90;99.90;;;;;;494761;240;27548;-71
2022/04/04 08:28:19;;;;;;;10.85;8.98;;;2.00;99.90;;;;;;494745;240;27497;-71
2022/04/04 08:30:21;;;;;;;10.55;8.23;;;2.00;99.90;;;;;;494730;240;27473;-71
2022/04/04 08:32:22;;;;;;;9.40;8.50;;;2.10;99.90;;;;;;494750;240;27520;-72
2022/04/04 08:34:23;;;;;;;10.38;8.05;;;2.10;99.90;;;;;;494762;240;27527;-73
2022/04/04 08:36:24;;;;;;;10.93;8.40;;;2.30;99.90;;;;;;494779;240;27561;-71
2022/04/04 08:38:26;;;;;;;8.25;7.45;;;2.30;99.90;;;;;;494721;240;27543;-72
2022/04/04 08:40:27;;;;;;;8.80;7.95;;;2.30;99.90;;;;;;494719;240;27906;-71
2022/04/04 08:42:28;;;;;;;10.20;7.87;;;2.30;99.90;;;;;;494720;240;28054;-72
2022/04/04 08:44:29;;;;;;;10.88;8.25;;;2.40;99.90;;;;;;494766;240;28011;-74
2022/04/04 08:46:33;;;;;;;8.63;7.65;;;2.50;99.90;;;;;;494775;240;27560;-72
2022/04/04 08:48:32;;;;;;;8.68;7.80;;;2.50;99.90;;;;;;494622;240;27604;-72
2022/04/04 08:50:33;;;;;;;9.55;7.80;;;2.60;99.90;;;;;;494775;240;27528;-72
2022/04/04 08:52:34;;;;;;;8.25;7.43;;;2.70;99.90;;;;;;494774;240;27516;-72
2022/04/04 08:54:36;;;;;;;8.23;7.43;;;2.80;99.90;;;;;;494801;240;27491;-71
2022/04/04 08:56:37;;;;;;;8.63;7.53;;;2.90;99.90;;;;;;494759;240;27457;-71
2022/04/04 08:58:38;;;;;;;8.80;7.90;;;2.90;99.90;;;;;;494769;240;27509;-72
2022/04/04 09:00:40;;;;;;;8.02;7.22;;;2.90;99.90;;;;;;494763;240;27563;-71
2022/04/04 09:02:41;;;;;;;7.65;6.95;;;3.00;99.90;;;;;;494772;240;27583;-71
2022/04/04 09:04:42;;;;;;;8.10;7.00;;;3.10;99.90;;;;;;494768;240;27498;-74
2022/04/04 09:06:43;;;;;;;7.50;6.82;;;3.10;99.90;;;;;;494772;240;27961;-71
2022/04/04 09:08:44;;;;;;;7.20;6.50;;;3.20;99.90;;;;;;494761;240;28059;-73
2022/04/04 09:10:46;;;;;;;7.30;6.60;;;3.20;99.90;;;;;;494757;240;29003;-72
2022/04/04 09:12:47;;;;;;;7.75;6.90;;;3.30;99.90;;;;;;494753;240;28051;-71
2022/04/04 09:14:51;;;;;;;7.70;7.00;;;3.40;99.90;;;;;;494773;240;27529;-70
2022/04/04 09:16:49;;;;;;;8.32;6.90;;;3.40;99.90;;;;;;494622;240;27478;-71
2022/04/04 09:18:51;;;;;;;7.90;6.57;;;3.40;99.90;;;;;;494789;240;27605;-73
2022/04/04 09:20:52;;;;;;;7.95;7.15;;;3.50;99.90;;;;;;494801;240;27502;-72
2022/04/04 09:22:53;;;;;;;7.72;6.40;;;3.50;99.90;;;;;;494792;240;27579;-71
2022/04/04 09:24:58;;;;;;;6.85;6.22;;;3.60;99.90;;;;;;494788;240;27475;-71
2022/04/04 09:26:56;;;;;;;8.52;6.20;;;3.50;99.90;;;;;;494521;240;27547;-71
2022/04/04 09:28:57;;;;;;;8.43;6.53;;;3.60;99.90;;;;;;494778;240;27512;-72
2022/04/04 09:30:58;;;;;;;7.10;6.40;;;3.70;99.90;;;;;;494768;240;27457;-72
2022/04/04 09:32:59;;;;;;;7.50;6.75;;;3.90;99.90;;;;;;494775;240;27501;-72
2022/04/04 09:35:02;;;;;;;7.18;6.47;;;3.90;99.90;;;;;;494763;240;28957;-72
2022/04/04 09:37:03;;;;;;;6.43;5.90;;;3.90;99.90;;;;;;494757;240;27915;-72
2022/04/04 09:39:03;;;;;;;7.50;6.70;;;3.90;99.90;;;;;;494711;240;28107;-73
2022/04/04 09:41:05;;;;;;;6.47;5.50;;;4.00;99.90;;;;;;494791;240;29014;-73
2022/04/04 09:43:06;;;;;;;7.45;5.50;;;4.00;99.90;;;;;;494825;240;27600;-72
2022/04/04 09:45:08;;;;;;;6.05;5.45;;;4.10;99.90;;;;;;494771;240;27489;-72
2022/04/04 09:47:08;;;;;;;6.40;5.47;;;4.20;99.90;;;;;;494724;240;27544;-72
2022/04/04 09:49:09;;;;;;;5.30;4.80;;;4.20;99.90;;;;;;494763;240;27553;-72
2022/04/04 09:51:11;;;;;;;6.43;5.55;;;4.20;99.90;;;;;;494729;240;27458;-71
2022/04/04 09:53:12;;;;;;;6.57;5.50;;;4.30;99.90;;;;;;494744;240;27616;-72
2022/04/04 09:55:13;;;;;;;5.93;5.32;;;4.30;99.90;;;;;;494759;240;27677;-74
2022/04/04 09:57:15;;;;;;;5.78;5.28;;;4.20;99.90;;;;;;494784;240;27585;-71
2022/04/04 09:59:16;;;;;;;6.60;5.97;;;4.30;99.90;;;;;;494738;240;27509;-72
2022/04/04 10:01:17;;;;;;;6.25;5.65;;;4.50;99.90;;;;;;494793;240;27954;-71
2022/04/04 10:03:18;;;;;;;6.65;6.05;;;4.50;99.90;;;;;;494761;240;28086;-71
2022/04/04 10:05:19;;;;;;;6.28;5.40;;;4.30;99.90;;;;;;494769;240;29908;-72
2022/04/04 10:07:21;;;;;;;6.03;5.43;;;4.40;99.90;;;;;;494800;240;27531;-72
2022/04/04 10:09:22;;;;;;;5.72;5.12;;;4.50;99.90;;;;;;494785;240;27585;-72
2022/04/04 10:11:23;;;;;;;5.57;5.05;;;4.60;99.90;;;;;;494775;240;27615;-72
2022/04/04 10:13:24;;;;;;;5.70;5.05;;;4.80;99.90;;;;;;494750;240;27689;-73
2022/04/04 10:15:26;;;;;;;5.12;4.72;;;4.80;99.90;;;;;;494773;240;27489;-71
2022/04/04 10:17:27;;;;;;;7.37;4.75;;;4.60;99.90;;;;;;494773;240;27465;-71
2022/04/04 10:19:28;;;;;;;5.55;5.05;;;4.40;99.90;;;;;;494775;240;27513;-72
2022/04/04 10:21:30;;;;;;;4.37;4.00;;;4.40;99.90;;;;;;494782;240;27546;-72
2022/04/04 10:23:31;;;;;;;4.20;3.90;;;4.50;99.90;;;;;;494761;240;27589;-72
2022/04/04 10:25:32;;;;;;;5.25;4.20;;;4.50;99.90;;;;;;494780;240;28643;-71
2022/04/04 10:27:33;;;;;;;3.92;3.62;;;4.60;99.90;;;;;;494778;240;28193;-71
2022/04/04 10:29:35;;;;;;;3.75;3.53;;;4.80;99.90;;;;;;494763;240;27982;-73
2022/04/04 10:31:36;;;;;;;4.00;3.60;;;5.00;99.90;;;;;;494791;240;27469;-71
2022/04/04 10:33:37;;;;;;;5.70;4.22;;;5.10;99.90;;;;;;494777;240;27601;-72
2022/04/04 10:35:38;;;;;;;4.65;3.90;;;5.10;99.90;;;;;;494784;240;27456;-71
2022/04/04 10:37:40;;;;;;;4.10;3.80;;;5.20;99.90;;;;;;494814;240;27575;-71